createdAt,value
2023-01-05T00:01:52.980Z,99677.41
2023-01-05T00:04:24.688Z,99686.06
2023-01-05T00:06:52.805Z,99668.72
2023-01-05T00:09:20.926Z,99653.16
2023-01-05T00:12:07.755Z,99645.25
2023-01-05T00:14:54.351Z,99639.06
2023-01-05T00:17:41.689Z,99637.28
2023-01-05T00:20:36.784Z,99625.38
2023-01-05T00:23:05.803Z,99623.56
2023-01-05T00:25:37.823Z,99607.13
2023-01-05T00:28:06.462Z,99619.31
2023-01-05T00:30:42.856Z,99613.19
2023-01-05T00:33:13.122Z,99609.75
2023-01-05T00:35:41.498Z,99610.53
2023-01-05T00:38:10.233Z,99621.13
2023-01-05T00:40:39.683Z,99648.63
2023-01-05T00:43:07.703Z,99620.22
2023-01-05T00:45:35.846Z,99621.09
2023-01-05T00:48:04.690Z,99613.31
2023-01-05T00:50:32.764Z,99627.09
2023-01-05T00:53:01.666Z,99610.41
2023-01-05T00:55:33.264Z,99619.28
2023-01-05T00:58:01.378Z,99600.25
2023-01-05T01:00:31.133Z,99599.31
2023-01-05T01:03:01.116Z,99616.66
2023-01-05T01:05:29.487Z,99621.00
2023-01-05T01:07:58.372Z,99614.69
2023-01-05T01:10:26.459Z,99606.13
2023-01-05T01:13:01.574Z,99602.69
2023-01-05T01:15:29.986Z,99615.66
2023-01-05T01:17:57.946Z,99617.31
2023-01-05T01:20:27.148Z,99605.50
2023-01-05T01:22:56.951Z,99601.97
2023-01-05T01:25:25.047Z,99599.41
2023-01-05T01:27:53.083Z,99614.13
2023-01-05T01:30:22.696Z,99614.75
2023-01-05T01:32:50.892Z,99600.25
2023-01-05T01:35:19.285Z,99600.16
2023-01-05T01:37:47.712Z,99582.16
2023-01-05T01:40:15.906Z,99592.34
2023-01-05T01:42:44.094Z,99586.34
2023-01-05T01:45:23.286Z,99582.16
2023-01-05T01:47:58.122Z,99582.16
2023-01-05T01:50:32.772Z,99570.16
2023-01-05T01:53:05.012Z,99569.16
2023-01-05T01:55:33.763Z,99543.16
2023-01-05T01:58:04.074Z,99548.34
2023-01-05T02:00:32.038Z,99567.44
2023-01-05T02:03:00.566Z,99538.84
2023-01-05T02:05:32.298Z,99561.44
2023-01-05T02:08:00.960Z,99538.00
2023-01-05T02:10:43.858Z,99551.00
2023-01-05T02:13:31.905Z,99548.44
2023-01-05T02:16:33.237Z,99579.69
2023-01-05T02:19:34.890Z,99564.97
2023-01-05T02:22:12.281Z,99560.63
2023-01-05T02:25:06.826Z,99533.81
2023-01-05T02:27:55.932Z,99519.09
2023-01-05T02:31:02.899Z,99523.44
2023-01-05T02:33:41.365Z,99524.25
2023-01-05T02:36:28.720Z,99524.31
2023-01-05T02:39:12.485Z,99511.31
2023-01-05T02:41:50.454Z,99514.78
2023-01-05T02:44:30.037Z,99517.41
2023-01-05T02:47:22.824Z,99509.59
2023-01-05T02:49:52.738Z,99518.28
2023-01-05T02:52:23.554Z,99519.09
2023-01-05T02:54:59.119Z,99513.84
2023-01-05T02:57:50.858Z,99494.84
2023-01-05T03:00:41.011Z,99480.16
2023-01-05T03:03:39.934Z,99478.47
2023-01-05T03:06:20.136Z,99474.13
2023-01-05T03:08:51.853Z,99499.22
2023-01-05T03:11:38.811Z,99481.91
2023-01-05T03:14:13.559Z,99477.59
2023-01-05T03:16:42.476Z,99471.53
2023-01-05T03:19:32.056Z,99464.59
2023-01-05T03:22:26.011Z,99462.03
2023-01-05T03:25:12.738Z,99460.28
2023-01-05T03:28:01.365Z,99462.88
2023-01-05T03:30:59.743Z,99449.03
2023-01-05T03:34:02.381Z,99451.63
2023-01-05T03:36:34.431Z,99468.09
2023-01-05T03:39:03.834Z,99477.53
2023-01-05T03:41:33.906Z,99487.91
2023-01-05T03:44:02.621Z,99461.13
2023-01-05T03:46:31.414Z,99436.03
2023-01-05T03:48:59.729Z,99397.16
2023-01-05T03:51:28.350Z,99385.88
2023-01-05T03:53:56.537Z,99381.56
2023-01-05T03:56:24.956Z,99380.72
2023-01-05T03:58:56.754Z,99383.28
2023-01-05T04:01:25.601Z,99368.59
2023-01-05T04:03:54.348Z,99362.53
2023-01-05T04:06:22.483Z,99374.63
2023-01-05T04:08:50.935Z,99372.03
2023-01-05T04:11:22.806Z,99361.66
2023-01-05T04:13:53.222Z,99359.97
2023-01-05T04:16:22.129Z,99359.09
2023-01-05T04:18:50.543Z,99381.53
2023-01-05T04:21:19.067Z,99382.44
2023-01-05T04:23:49.456Z,99388.47
2023-01-05T04:26:17.616Z,99398.00
2023-01-05T04:28:47.103Z,99397.13
2023-01-05T04:31:15.669Z,99391.97
2023-01-05T04:33:45.712Z,99388.47
2023-01-05T04:36:16.574Z,99396.28
2023-01-05T04:38:45.173Z,99391.06
2023-01-05T04:41:13.381Z,99394.53
2023-01-05T04:43:41.766Z,99376.41
2023-01-05T04:46:10.184Z,99361.66
2023-01-05T04:48:38.853Z,99367.69
2023-01-05T04:51:07.071Z,99374.63
2023-01-05T04:53:35.641Z,99373.72
2023-01-05T04:56:04.673Z,99374.63
2023-01-05T04:58:33.526Z,99381.47
2023-01-05T05:01:03.032Z,99371.16
2023-01-05T05:03:33.307Z,99361.69
2023-01-05T05:06:02.413Z,99357.34
2023-01-05T05:08:30.781Z,99356.47
2023-01-05T05:11:00.166Z,99359.88
2023-01-05T05:13:29.607Z,99353.81
2023-01-05T05:15:58.777Z,99366.84
2023-01-05T05:18:30.861Z,99372.88
2023-01-05T05:20:59.625Z,99371.97
2023-01-05T05:23:28.238Z,99364.19
2023-01-05T05:25:56.353Z,99358.16
2023-01-05T05:28:31.024Z,99343.50
2023-01-05T05:30:59.197Z,99345.25
2023-01-05T05:33:27.675Z,99346.13
2023-01-05T05:35:55.705Z,99346.09
2023-01-05T05:38:23.830Z,99346.09
2023-01-05T05:40:54.963Z,99339.19
2023-01-05T05:43:25.563Z,99351.25
2023-01-05T05:45:53.808Z,99346.13
2023-01-05T05:48:22.208Z,99342.66
2023-01-05T05:50:50.112Z,99337.44
2023-01-05T05:53:18.235Z,99331.44
2023-01-05T05:55:50.734Z,99334.03
2023-01-05T05:58:19.738Z,99324.53
2023-01-05T06:00:48.311Z,99321.09
2023-01-05T06:03:16.898Z,99298.59
2023-01-05T06:05:45.093Z,99290.81
2023-01-05T06:08:16.161Z,99308.97
2023-01-05T06:10:44.535Z,99337.50
2023-01-05T06:13:12.934Z,99338.34
2023-01-05T06:15:40.974Z,99334.03
2023-01-05T06:18:10.051Z,99342.69
2023-01-05T06:20:38.218Z,99346.16
2023-01-05T06:23:08.643Z,99331.41
2023-01-05T06:25:37.271Z,99336.59
2023-01-05T06:28:05.278Z,99341.78
2023-01-05T06:30:34.997Z,99321.75
2023-01-05T06:33:03.557Z,99312.38
2023-01-05T06:35:31.714Z,99306.31
2023-01-05T06:37:59.895Z,99308.09
2023-01-05T06:40:28.362Z,99290.81
2023-01-05T06:42:56.666Z,99287.34
2023-01-05T06:45:24.758Z,99283.84
2023-01-05T06:47:53.376Z,99276.06
2023-01-05T06:50:21.484Z,99276.06
2023-01-05T06:52:49.565Z,99278.63
2023-01-05T06:55:18.155Z,99268.28
2023-01-05T06:57:46.210Z,99267.47
2023-01-05T07:00:14.874Z,99271.84
2023-01-05T07:02:43.812Z,99269.25
2023-01-05T07:05:11.862Z,99272.69
2023-01-05T07:07:40.134Z,99269.22
2023-01-05T07:10:09.032Z,99260.56
2023-01-05T07:12:37.476Z,99243.19
2023-01-05T07:15:06.355Z,99244.13
2023-01-05T07:17:34.933Z,99246.66
2023-01-05T07:20:04.627Z,99239.78
2023-01-05T07:22:36.106Z,99248.47
2023-01-05T07:25:04.343Z,99254.50
2023-01-05T07:27:32.422Z,99274.41
2023-01-05T07:30:00.980Z,99270.09
2023-01-05T07:32:29.086Z,99277.81
2023-01-05T07:34:57.134Z,99274.34
2023-01-05T07:37:25.702Z,99271.72
2023-01-05T07:39:53.812Z,99250.12
2023-01-05T07:42:21.924Z,99258.84
2023-01-05T07:44:51.146Z,99248.50
2023-01-05T07:47:19.657Z,99231.19
2023-01-05T07:49:47.692Z,99234.69
2023-01-05T07:52:17.363Z,99257.16
2023-01-05T07:54:45.615Z,99245.91
2023-01-05T07:57:13.637Z,99235.50
2023-01-05T07:59:42.196Z,99228.56
2023-01-05T08:02:11.138Z,99241.59
2023-01-05T08:04:39.927Z,99255.41
2023-01-05T08:07:11.746Z,99259.72
2023-01-05T08:10:19.463Z,99267.44
2023-01-05T08:13:06.210Z,99258.75
2023-01-05T08:15:34.809Z,99250.06
2023-01-05T08:18:02.953Z,99237.88
2023-01-05T08:20:30.997Z,99226.63
2023-01-05T08:23:08.504Z,99223.94
2023-01-05T08:25:36.800Z,99228.44
2023-01-05T08:28:05.588Z,99226.59
2023-01-05T08:30:33.702Z,99239.63
2023-01-05T08:33:01.971Z,99244.69
2023-01-05T08:35:31.454Z,99236.78
2023-01-05T08:37:59.524Z,99230.03
2023-01-05T08:40:27.588Z,99237.88
2023-01-05T08:42:57.543Z,99242.16
2023-01-05T08:45:25.764Z,99233.47
2023-01-05T08:47:53.929Z,99231.91
2023-01-05T08:50:22.427Z,99241.44
2023-01-05T08:52:50.463Z,99276.03
2023-01-05T08:55:18.719Z,99256.16
2023-01-05T08:57:47.232Z,99231.16
2023-01-05T09:00:17.603Z,99239.75
2023-01-05T09:02:45.861Z,99244.91
2023-01-05T09:05:14.506Z,99250.12
2023-01-05T09:07:42.664Z,99243.19
2023-01-05T09:10:11.623Z,99254.44
2023-01-05T09:12:40.277Z,99266.53
2023-01-05T09:15:11.327Z,99268.28
2023-01-05T09:17:39.995Z,99252.78
2023-01-05T09:20:08.687Z,99253.56
2023-01-05T09:22:46.084Z,99256.16
2023-01-05T09:25:14.583Z,99261.34
2023-01-05T09:27:43.191Z,99269.97
2023-01-05T09:30:13.090Z,99257.81
2023-01-05T09:32:41.171Z,99248.38
2023-01-05T09:35:12.268Z,99237.94
2023-01-05T09:37:42.766Z,99222.16
2023-01-05T09:40:13.288Z,99217.00
2023-01-05T09:42:44.611Z,99228.47
2023-01-05T09:45:13.261Z,99217.97
2023-01-05T09:47:46.866Z,99214.75
2023-01-05T09:50:21.301Z,99206.06
2023-01-05T09:52:51.477Z,99205.91
2023-01-05T09:55:27.907Z,99207.97
2023-01-05T09:58:02.964Z,99201.91
2023-01-05T10:00:31.596Z,99186.28
2023-01-05T10:03:03.587Z,99188.78
2023-01-05T10:05:41.483Z,99187.09
2023-01-05T10:08:34.141Z,99185.56
2023-01-05T10:11:34.141Z,99173.59
2023-01-05T10:14:08.695Z,99166.00
2023-01-05T10:16:36.872Z,99173.25
2023-01-05T10:19:07.190Z,99168.75
2023-01-05T10:21:49.394Z,99156.06
2023-01-05T10:24:41.558Z,99163.37
2023-01-05T10:27:27.155Z,99187.66
2023-01-05T10:30:12.660Z,99191.50
2023-01-05T10:33:26.439Z,99186.84
2023-01-05T10:36:12.095Z,99190.72
2023-01-05T10:38:59.390Z,99195.63
2023-01-05T10:41:51.165Z,99198.84
2023-01-05T10:44:28.599Z,99179.34
2023-01-05T10:46:57.647Z,99185.37
2023-01-05T10:49:28.709Z,99184.41
2023-01-05T10:51:58.533Z,99181.66
2023-01-05T10:54:47.457Z,99183.66
2023-01-05T10:57:36.585Z,99191.25
2023-01-05T11:00:17.402Z,99185.87
2023-01-05T11:03:01.278Z,99173.47
2023-01-05T11:05:37.562Z,99192.53
2023-01-05T11:08:19.652Z,99204.66
2023-01-05T11:11:03.173Z,99192.19
2023-01-05T11:13:40.503Z,99187.63
2023-01-05T11:16:13.402Z,99196.81
2023-01-05T11:19:03.752Z,99201.34
2023-01-05T11:21:46.261Z,99209.16
2023-01-05T11:24:34.930Z,99212.59
2023-01-05T11:27:21.779Z,99213.75
2023-01-05T11:30:19.353Z,99218.97
2023-01-05T11:32:48.309Z,99234.75
2023-01-05T11:35:31.003Z,99236.84
2023-01-05T11:38:00.600Z,99250.09
2023-01-05T11:40:33.990Z,99266.91
2023-01-05T11:43:10.663Z,99271.81
2023-01-05T11:45:45.538Z,99260.91
2023-01-05T11:48:20.157Z,99264.97
2023-01-05T11:50:51.545Z,99261.94
2023-01-05T11:53:36.488Z,99258.94
2023-01-05T11:56:08.959Z,99252.34
2023-01-05T11:58:45.608Z,99247.25
2023-01-05T12:01:27.953Z,99236.13
2023-01-05T12:04:11.922Z,99243.59
2023-01-05T12:07:04.306Z,99246.75
2023-01-05T12:09:36.937Z,99255.63
2023-01-05T12:12:04.988Z,99258.84
2023-01-05T12:14:59.275Z,99273.34
2023-01-05T12:17:59.472Z,99285.00
2023-01-05T12:20:40.332Z,99282.56
2023-01-05T12:23:28.009Z,99279.69
2023-01-05T12:26:28.504Z,99279.03
2023-01-05T12:36:27.332Z,99272.22
2023-01-05T12:39:08.031Z,99273.03
2023-01-05T12:41:45.261Z,99271.31
2023-01-05T12:44:29.552Z,99267.59
2023-01-05T12:47:31.188Z,99252.16
2023-01-05T12:50:44.416Z,99242.06
2023-01-05T12:53:23.999Z,99241.59
2023-01-05T12:55:56.122Z,99230.69
2023-01-05T12:58:35.691Z,99215.84
2023-01-05T13:01:07.066Z,99204.53
2023-01-05T13:03:44.830Z,99212.59
2023-01-05T13:06:17.490Z,99203.25
2023-01-05T13:08:50.184Z,99198.66
2023-01-05T13:11:30.248Z,99201.41
2023-01-05T13:14:06.156Z,99194.97
2023-01-05T13:16:43.614Z,99193.50
2023-01-05T13:19:34.594Z,99206.75
2023-01-05T13:22:06.464Z,99208.37
2023-01-05T13:24:43.820Z,99211.44
2023-01-05T13:27:13.012Z,99204.94
2023-01-05T13:29:44.838Z,99220.03
2023-01-05T13:32:19.329Z,99193.37
2023-01-05T13:35:15.428Z,99202.53
2023-01-05T13:38:21.473Z,99198.69
2023-01-05T13:41:04.321Z,99193.91
2023-01-05T13:43:45.400Z,99207.19
2023-01-05T13:46:32.076Z,99199.19
2023-01-05T13:49:18.861Z,99204.25
2023-01-05T13:51:55.044Z,99221.44
2023-01-05T13:54:43.297Z,99208.00
2023-01-05T13:57:26.402Z,99214.91
2023-01-05T14:00:06.613Z,99210.91
2023-01-05T14:02:43.883Z,99194.16
2023-01-05T14:05:32.816Z,99205.38
2023-01-05T14:08:04.387Z,99212.41
2023-01-05T14:10:34.197Z,99221.09
2023-01-05T14:13:03.679Z,99220.09
2023-01-05T14:15:42.910Z,99218.38
2023-01-05T14:18:13.179Z,99228.12
2023-01-05T14:20:50.941Z,99227.44
2023-01-05T14:23:30.202Z,99225.63
2023-01-05T14:25:59.579Z,99223.87
2023-01-05T14:28:30.948Z,99228.25
2023-01-05T14:31:26.265Z,99227.31
2023-01-05T14:33:57.718Z,99232.50
2023-01-05T14:36:31.475Z,99240.25
2023-01-05T14:39:02.340Z,99244.16
2023-01-05T14:41:31.647Z,99252.34
2023-01-05T14:44:07.296Z,99254.09
2023-01-05T14:46:57.629Z,99264.69
2023-01-05T14:49:33.884Z,99250.91
2023-01-05T14:52:03.711Z,99248.19
2023-01-05T14:54:43.740Z,99259.81
2023-01-05T14:57:27.081Z,99261.34
2023-01-05T15:00:13.403Z,99260.50
2023-01-05T15:03:08.695Z,99260.63
2023-01-05T15:05:43.057Z,99258.00
2023-01-05T15:08:33.357Z,99260.53
2023-01-05T15:11:24.350Z,99267.34
2023-01-05T15:14:29.280Z,99271.22
2023-01-05T15:17:20.700Z,99273.84
2023-01-05T15:20:09.335Z,99277.25
2023-01-05T15:22:43.917Z,99267.66
2023-01-05T15:25:58.002Z,99264.31
2023-01-05T15:31:37.408Z,99263.16
2023-01-05T15:34:15.076Z,99255.63
2023-01-05T15:36:51.373Z,99266.94
2023-01-05T15:39:32.728Z,99272.22
2023-01-05T15:42:07.799Z,99272.97
2023-01-05T15:44:40.769Z,99260.91
2023-01-05T15:47:10.483Z,99273.59
2023-01-05T15:49:40.278Z,99274.56
2023-01-05T15:52:19.388Z,99268.41
2023-01-05T15:54:58.340Z,99268.44
2023-01-05T15:57:26.623Z,99277.03
2023-01-05T15:59:55.433Z,99281.34
2023-01-05T16:02:32.038Z,99293.66
2023-01-05T16:05:09.898Z,99286.53
2023-01-05T16:07:54.357Z,99291.09
2023-01-05T16:10:35.607Z,99293.66
2023-01-05T16:13:15.373Z,99291.06
2023-01-05T16:15:46.347Z,99291.91
2023-01-05T16:18:39.940Z,99289.19
2023-01-05T16:21:35.645Z,99298.03
2023-01-05T16:24:09.769Z,99295.97
2023-01-05T16:26:38.375Z,99294.19
2023-01-05T16:29:34.354Z,99292.34
2023-01-05T16:32:02.858Z,99304.09
2023-01-05T16:34:33.002Z,99316.81
2023-01-05T16:37:15.204Z,99327.09
2023-01-05T16:39:44.877Z,99327.09
2023-01-05T16:42:32.637Z,99327.06
2023-01-05T16:45:01.333Z,99337.37
2023-01-05T16:47:39.372Z,99334.06
2023-01-05T16:50:30.691Z,99337.72
2023-01-05T16:53:20.008Z,99335.75
2023-01-05T16:55:48.667Z,99336.69
2023-01-05T16:58:32.338Z,99333.25
2023-01-05T17:01:13.302Z,99339.28
2023-01-05T17:03:42.888Z,99330.81
2023-01-05T17:06:24.744Z,99337.78
2023-01-05T17:08:54.205Z,99340.94
2023-01-05T17:11:22.671Z,99348.09
2023-01-05T17:13:55.155Z,99342.97
2023-01-05T17:16:23.611Z,99341.06
2023-01-05T17:18:51.779Z,99346.50
2023-01-05T17:21:24.622Z,99355.91
2023-01-05T17:23:55.855Z,99348.94
2023-01-05T17:26:27.321Z,99350.66
2023-01-05T17:28:59.236Z,99343.88
2023-01-05T17:31:27.564Z,99346.25
2023-01-05T17:33:55.929Z,99338.34
2023-01-05T17:36:30.571Z,99342.75
2023-01-05T17:38:59.246Z,99347.69
2023-01-05T17:41:27.225Z,99347.81
2023-01-05T17:43:55.220Z,99354.13
2023-01-05T17:46:31.652Z,99356.47
2023-01-05T17:49:00.889Z,99364.25
2023-01-05T17:51:30.321Z,99367.03
2023-01-05T17:53:59.268Z,99378.28
2023-01-05T17:56:27.416Z,99379.94
2023-01-05T17:58:55.873Z,99374.84
2023-01-05T18:01:23.912Z,99372.25
2023-01-05T18:03:52.291Z,99373.81
2023-01-05T18:06:20.237Z,99376.72
2023-01-05T18:08:48.167Z,99370.72
2023-01-05T18:11:17.763Z,99371.66
2023-01-05T18:13:46.025Z,99377.69
2023-01-05T18:16:14.240Z,99375.25
2023-01-05T18:18:44.596Z,99373.34
2023-01-05T18:21:12.547Z,99370.50
2023-01-05T18:23:40.437Z,99377.41
2023-01-05T18:26:10.217Z,99372.28
2023-01-05T18:28:38.950Z,99368.03
2023-01-05T18:31:15.212Z,99374.84
2023-01-05T18:33:43.736Z,99361.78
2023-01-05T18:36:14.061Z,99364.62
2023-01-05T18:38:43.094Z,99367.78
2023-01-05T18:41:11.962Z,99376.75
2023-01-05T18:43:40.078Z,99363.88
2023-01-05T18:46:08.228Z,99365.59
2023-01-05T18:48:36.557Z,99370.75
2023-01-05T18:51:08.806Z,99367.34
2023-01-05T18:53:39.010Z,99364.72
2023-01-05T18:56:08.707Z,99364.62
2023-01-05T18:58:37.306Z,99368.06
2023-01-05T19:01:13.499Z,99364.78
2023-01-05T19:03:42.691Z,99369.19
2023-01-05T19:06:16.322Z,99362.94
2023-01-05T19:08:45.581Z,99354.41
2023-01-05T19:11:17.904Z,99358.00
2023-01-05T19:13:49.201Z,99365.53
2023-01-05T19:16:18.765Z,99363.00
2023-01-05T19:19:04.252Z,99366.38
2023-01-05T19:21:33.620Z,99365.66
2023-01-05T19:24:03.329Z,99369.25
2023-01-05T19:26:32.560Z,99381.34
2023-01-05T19:29:01.829Z,99379.53
2023-01-05T19:31:30.644Z,99388.31
2023-01-05T19:34:02.041Z,99397.78
2023-01-05T19:36:35.014Z,99404.75
2023-01-05T19:39:11.505Z,99402.16
2023-01-05T19:41:41.121Z,99407.31
2023-01-05T19:44:15.180Z,99395.19
2023-01-05T19:46:44.097Z,99410.91
2023-01-05T19:49:20.144Z,99405.56
2023-01-05T19:51:48.921Z,99404.72
2023-01-05T19:54:17.191Z,99412.50
2023-01-05T19:56:45.793Z,99420.31
2023-01-05T19:59:16.922Z,99426.34
2023-01-05T20:01:45.490Z,99424.50
2023-01-05T20:04:14.313Z,99423.75
2023-01-05T20:06:44.555Z,99432.41
2023-01-05T20:09:17.585Z,99419.44
2023-01-05T20:11:51.701Z,99426.44
2023-01-05T20:14:26.059Z,99424.78
2023-01-05T20:17:01.586Z,99418.62
2023-01-05T20:19:31.216Z,99424.59
2023-01-05T20:22:02.308Z,99430.75
2023-01-05T20:24:32.079Z,99431.59
2023-01-05T20:27:04.219Z,99439.38
2023-01-05T20:29:32.558Z,99426.53
2023-01-05T20:32:04.724Z,99440.31
2023-01-05T20:34:36.470Z,99448.16
2023-01-05T20:37:07.544Z,99443.78
2023-01-05T20:39:36.675Z,99454.19
2023-01-05T20:42:05.203Z,99444.59
2023-01-05T20:44:36.595Z,99450.72
2023-01-05T20:47:06.853Z,99453.34
2023-01-05T20:49:36.571Z,99453.22
2023-01-05T20:52:06.136Z,99462.88
2023-01-05T20:54:34.322Z,99462.88
2023-01-05T20:57:02.367Z,99457.66
2023-01-05T20:59:32.576Z,99462.81
2023-01-05T21:02:01.536Z,99465.47
2023-01-05T21:04:31.099Z,99476.72
2023-01-05T21:07:01.356Z,99471.50
2023-01-05T21:09:30.684Z,99471.53
2023-01-05T21:11:59.295Z,99477.59
2023-01-05T21:14:27.847Z,99482.72
2023-01-05T21:16:56.020Z,99486.25
2023-01-05T21:19:24.899Z,99486.25
2023-01-05T21:21:55.603Z,99493.97
2023-01-05T21:24:24.628Z,99498.31
2023-01-05T21:26:53.220Z,99499.22
2023-01-05T21:29:23.437Z,99500.94
2023-01-05T21:31:56.013Z,99496.63
2023-01-05T21:34:24.608Z,99495.72
2023-01-05T21:36:53.033Z,99495.78
2023-01-05T21:39:24.811Z,99501.81
2023-01-05T21:42:12.704Z,99497.47
2023-01-05T21:44:41.306Z,99494.91
2023-01-05T21:47:10.484Z,99499.16
2023-01-05T21:49:38.654Z,99499.22
2023-01-05T21:52:25.055Z,99511.28
2023-01-05T21:55:11.851Z,99519.09
2023-01-05T21:57:40.208Z,99515.63
2023-01-05T22:00:09.360Z,99516.47
2023-01-05T22:02:37.785Z,99528.59
2023-01-05T22:05:06.361Z,99522.53
2023-01-05T22:07:34.280Z,99516.50
2023-01-05T22:10:03.263Z,99513.87
2023-01-05T22:12:31.346Z,99507.81
2023-01-05T22:14:59.332Z,99511.31
2023-01-05T22:17:27.736Z,99499.19
2023-01-05T22:19:55.709Z,99507.81
2023-01-05T22:22:23.679Z,99491.44
2023-01-05T22:24:51.953Z,99489.69
2023-01-05T22:27:19.897Z,99487.97
2023-01-05T22:29:47.830Z,99499.19
2023-01-05T22:32:16.081Z,99490.56
2023-01-05T22:34:45.454Z,99508.69
2023-01-05T22:37:16.163Z,99507.88
2023-01-05T22:39:44.687Z,99506.16
2023-01-05T22:42:12.661Z,99510.44
2023-01-05T22:44:40.581Z,99518.25
2023-01-05T22:47:08.857Z,99527.75
2023-01-05T22:49:36.847Z,99531.22
2023-01-05T22:52:05.040Z,99535.53
2023-01-05T22:54:33.973Z,99547.66
2023-01-05T22:57:01.972Z,99554.56
2023-01-05T22:59:29.858Z,99560.56
2023-01-05T23:01:58.340Z,99564.09
2023-01-05T23:04:26.249Z,99572.78
2023-01-05T23:06:54.208Z,99580.56
2023-01-05T23:09:22.684Z,99591.78
2023-01-05T23:11:50.786Z,99592.62
2023-01-05T23:14:19.391Z,99598.66
2023-01-05T23:16:47.985Z,99597.84
2023-01-05T23:19:17.143Z,99593.47
2023-01-05T23:21:45.263Z,99602.16
2023-01-05T23:24:13.624Z,99609.06
2023-01-05T23:26:41.946Z,99605.50
2023-01-05T23:29:10.101Z,99602.13
2023-01-05T23:31:38.376Z,99617.69
2023-01-05T23:34:06.342Z,99610.75
2023-01-05T23:36:34.234Z,99609.00
2023-01-05T23:39:02.559Z,99611.63
2023-01-05T23:41:30.613Z,99603.78
2023-01-05T23:43:58.627Z,99598.66
2023-01-05T23:46:27.205Z,99601.25
2023-01-05T23:48:55.160Z,99606.44
2023-01-05T23:51:23.162Z,99599.53
2023-01-05T23:53:53.143Z,99600.34
2023-01-05T23:56:26.718Z,99609.91
2023-01-05T23:59:02.765Z,99611.63
